Time;durP1;ratioP1;P1;durP2;ratioP2;P2;SDS_P1;SDS_P2;PMS_P1;PMS_P2;Temp;Humidity;BMP_temperature;BMP_pressure;BME280_temperature;BME280_humidity;BME280_pressure;Samples;Min_cycle;Max_cycle;Signal;HPM_P1;HPM_P2
2022/11/04 00:01:59;;;;;;;0.73;0.73;;;;;;;10.59;nan;97156.94;5054317;28;20251;-70
2022/11/04 00:04:27;;;;;;;1.00;1.00;;;;;;;10.47;nan;97150.88;5054380;28;20201;-70
2022/11/04 00:06:54;;;;;;;1.47;0.80;;;;;;;10.45;nan;97145.78;5054338;28;20205;-70
2022/11/04 00:09:29;;;;;;;0.83;0.80;;;;;;;10.50;nan;97140.56;5054229;28;20225;-70
2022/11/04 00:14:49;;;;;;;0.60;0.60;;;;;;;10.54;nan;97151.53;5029621;28;20201;-70
2022/11/04 00:17:24;;;;;;;0.70;0.70;;;;;;;10.47;nan;97149.03;5054188;28;20205;-70
2022/11/04 00:33:24;;;;;;;1.93;1.00;;;;;;;10.36;nan;97155.19;5053747;28;20228;-70
2022/11/04 00:33:47;;;;;;;1.10;1.00;;;;;;;10.38;nan;97155.78;5053507;28;20730;-70
2022/11/04 00:36:14;;;;;;;0.80;0.70;;;;;;;10.45;nan;97155.63;5053918;28;20274;-70
2022/11/04 00:38:40;;;;;;;0.80;0.80;;;;;;;10.49;nan;97151.44;5053471;28;20604;-70
2022/11/04 00:41:24;;;;;;;0.70;0.70;;;;;;;10.49;nan;97164.72;5053666;28;20225;-70
2022/11/04 00:43:55;;;;;;;1.03;0.97;;;;;;;10.52;nan;97150.97;5053744;28;20225;-70
2022/11/04 00:46:21;;;;;;;1.13;0.90;;;;;;;10.51;nan;97163.41;5053744;28;20560;-70
2022/11/04 00:48:48;;;;;;;1.27;0.97;;;;;;;10.52;nan;97150.97;5053292;28;20662;-70
2022/11/04 00:51:14;;;;;;;0.97;0.97;;;;;;;10.48;nan;97155.13;5053268;28;20221;-70
2022/11/04 00:53:41;;;;;;;0.83;0.80;;;;;;;10.50;nan;97151.19;5053305;28;20217;-70
2022/11/04 00:56:07;;;;;;;0.80;0.80;;;;;;;10.58;nan;97161.44;5053565;28;20205;-70
2022/11/04 00:58:34;;;;;;;0.87;0.87;;;;;;;10.58;nan;97165.94;5053515;28;20205;-69
2022/11/04 01:01:00;;;;;;;0.80;0.80;;;;;;;10.57;nan;97157.16;5053508;28;20251;-69
2022/11/04 01:03:26;;;;;;;0.90;0.90;;;;;;;10.60;nan;97163.84;5053541;28;20597;-70
2022/11/04 01:05:53;;;;;;;0.97;0.80;;;;;;;10.65;nan;97163.94;5053177;28;20577;-70
2022/11/04 01:08:19;;;;;;;0.90;0.90;;;;;;;10.63;nan;97160.69;5053404;28;20581;-70
2022/11/04 01:10:46;;;;;;;1.23;0.80;;;;;;;10.62;nan;97162.56;5053415;28;20316;-70
2022/11/04 01:13:12;;;;;;;1.17;0.70;;;;;;;10.65;nan;97175.38;5053349;28;20201;-70
2022/11/04 01:15:39;;;;;;;1.60;0.97;;;;;;;10.63;nan;97166.81;5053067;28;20209;-70
2022/11/04 01:18:06;;;;;;;0.77;0.77;;;;;;;10.60;nan;97179.81;5053036;28;20205;-70
2022/11/04 01:20:33;;;;;;;1.13;0.80;;;;;;;10.56;nan;97181.31;5053317;28;20384;-70
2022/11/04 01:23:00;;;;;;;0.80;0.80;;;;;;;10.58;nan;97185.34;5053007;28;20209;-70
2022/11/04 01:25:26;;;;;;;1.40;0.70;;;;;;;10.73;nan;97190.91;5053250;28;20300;-70
2022/11/04 01:27:53;;;;;;;0.83;0.60;;;;;;;10.70;nan;97188.75;5052812;28;20233;-70
2022/11/04 01:30:19;;;;;;;0.77;0.67;;;;;;;10.75;nan;97186.19;5052924;28;20235;-70
2022/11/04 01:32:45;;;;;;;0.70;0.70;;;;;;;10.62;nan;97175.03;5052944;28;20205;-70
2022/11/04 01:35:12;;;;;;;1.60;0.80;;;;;;;10.51;nan;97170.59;5053219;28;20204;-70
2022/11/04 01:37:38;;;;;;;0.83;0.70;;;;;;;10.50;nan;97169.78;5052879;28;20551;-70
2022/11/04 01:40:05;;;;;;;0.70;0.70;;;;;;;10.42;nan;97185.34;5053091;28;20216;-70
2022/11/04 01:42:32;;;;;;;0.87;0.80;;;;;;;10.40;nan;97182.09;5054181;28;20209;-70
2022/11/04 01:45:00;;;;;;;0.60;0.60;;;;;;;10.37;nan;97187.91;5057077;28;20205;-70
2022/11/04 01:48:07;;;;;;;0.60;0.60;;;;;;;10.36;nan;97186.28;5057061;28;20339;-70
2022/11/04 01:50:36;;;;;;;0.70;0.70;;;;;;;10.35;nan;97189.97;5056920;28;20243;-70
2022/11/04 01:53:17;;;;;;;0.80;0.60;;;;;;;10.38;nan;97186.84;5056841;28;20201;-70
2022/11/04 01:55:51;;;;;;;1.17;0.73;;;;;;;10.34;nan;97191.03;5056885;28;20289;-70
2022/11/04 01:58:21;;;;;;;1.20;1.10;;;;;;;10.28;nan;97184.78;5056839;28;20196;-70
2022/11/04 02:00:48;;;;;;;0.80;0.80;;;;;;;10.28;nan;97186.66;5055627;28;20247;-70
2022/11/04 02:03:18;;;;;;;0.73;0.70;;;;;;;10.27;nan;97185.06;5056472;28;20215;-70
2022/11/04 02:05:45;;;;;;;2.00;0.73;;;;;;;10.27;nan;97185.06;5056432;28;20212;-70
2022/11/04 02:08:15;;;;;;;0.60;0.60;;;;;;;10.23;nan;97184.72;5056576;28;20240;-70
2022/11/04 02:10:48;;;;;;;0.77;0.77;;;;;;;10.23;nan;97170.63;5056553;28;20239;-70
2022/11/04 02:13:13;;;;;;;0.53;0.53;;;;;;;10.25;nan;97158.72;5056633;28;20196;-69
2022/11/04 02:15:58;;;;;;;1.67;0.80;;;;;;;10.22;nan;97159.19;5056206;28;20201;-70
2022/11/04 02:18:33;;;;;;;0.80;0.73;;;;;;;10.19;nan;97158.88;5056336;28;20185;-70
2022/11/04 02:21:20;;;;;;;0.80;0.67;;;;;;;10.25;nan;97163.22;5056160;28;20228;-70
2022/11/04 02:23:58;;;;;;;2.50;0.80;;;;;;;10.29;nan;97153.75;5056968;28;20190;-70
2022/11/04 02:26:27;;;;;;;0.60;0.60;;;;;;;10.26;nan;97162.19;5056356;28;20185;-71
2022/11/04 02:29:20;;;;;;;0.60;0.60;;;;;;;10.29;nan;97178.47;5056147;28;20229;-70
2022/11/04 02:32:16;;;;;;;1.67;0.60;;;;;;;10.24;nan;97177.56;5056168;28;20350;-70
2022/11/04 02:34:59;;;;;;;2.33;0.77;;;;;;;10.14;nan;97175.50;5056128;28;20185;-70
2022/11/04 02:37:47;;;;;;;0.87;0.60;;;;;;;10.11;nan;97181.31;5054911;28;20533;-70
2022/11/04 02:40:25;;;;;;;1.77;0.80;;;;;;;10.17;nan;97161.75;5054848;28;20222;-70
2022/11/04 02:43:08;;;;;;;2.33;0.50;;;;;;;10.16;nan;97159.34;5055591;28;20656;-70
2022/11/04 02:45:43;;;;;;;1.57;0.60;;;;;;;10.14;nan;97166.75;5055978;28;20197;-70
2022/11/04 02:48:32;;;;;;;1.83;0.70;;;;;;;10.12;nan;97166.16;5055920;28;20185;-70
2022/11/04 02:51:06;;;;;;;1.40;0.80;;;;;;;10.16;nan;97160.16;5055537;28;20225;-70
2022/11/04 02:53:50;;;;;;;1.73;0.60;;;;;;;10.13;nan;97175.75;5055779;28;20193;-70
2022/11/04 02:56:19;;;;;;;2.00;0.70;;;;;;;10.10;nan;97187.66;5055826;28;20188;-70
2022/11/04 02:58:58;;;;;;;0.73;0.53;;;;;;;10.05;nan;97178.78;5055349;28;20208;-70
2022/11/04 03:01:31;;;;;;;0.60;0.60;;;;;;;9.96;nan;97169.56;5055629;28;20235;-70
2022/11/04 03:04:05;;;;;;;1.03;0.60;;;;;;;9.89;nan;97192.78;5054281;28;20188;-70
2022/11/04 03:06:34;;;;;;;1.60;0.83;;;;;;;9.91;nan;97194.16;5055325;28;20189;-70
2022/11/04 03:09:02;;;;;;;1.30;0.60;;;;;;;9.98;nan;97184.22;5055502;28;20228;-70
2022/11/04 03:11:29;;;;;;;1.53;0.73;;;;;;;10.04;nan;97174.47;5055441;28;20235;-70
2022/11/04 03:14:21;;;;;;;0.80;0.50;;;;;;;9.86;nan;97172.03;5053973;28;20201;-70
2022/11/04 03:16:59;;;;;;;0.93;0.70;;;;;;;9.82;nan;97170.88;5054923;28;20231;-70
2022/11/04 03:19:49;;;;;;;2.63;0.80;;;;;;;9.82;nan;97166.34;5054241;28;20189;-70
2022/11/04 03:22:22;;;;;;;4.03;1.13;;;;;;;9.77;nan;97189.34;5055008;28;20209;-71
2022/11/04 03:24:49;;;;;;;1.13;0.80;;;;;;;9.69;nan;97198.47;5055207;28;20209;-70
2022/11/04 03:27:29;;;;;;;1.87;0.70;;;;;;;9.71;nan;97204.38;5054903;28;20664;-70
2022/11/04 03:30:08;;;;;;;0.87;0.60;;;;;;;9.57;nan;97192.38;5055027;28;20216;-70
2022/11/04 03:32:50;;;;;;;1.93;0.77;;;;;;;9.49;nan;97194.56;5055098;28;20188;-70
2022/11/04 03:35:17;;;;;;;1.43;0.70;;;;;;;9.45;nan;97209.34;5055107;28;20193;-70
2022/11/04 03:37:47;;;;;;;0.63;0.63;;;;;;;9.40;nan;97220.66;5053822;28;20212;-70
2022/11/04 03:40:14;;;;;;;1.30;0.70;;;;;;;9.40;nan;97219.84;5054573;28;20217;-70
2022/11/04 03:42:46;;;;;;;0.50;0.50;;;;;;;9.37;nan;97223.75;5054868;28;20209;-70
2022/11/04 03:45:14;;;;;;;1.23;0.60;;;;;;;9.31;nan;97221.22;5055114;28;20189;-70
2022/11/04 03:47:41;;;;;;;0.83;0.63;;;;;;;9.35;nan;97235.66;5054837;28;20205;-70
2022/11/04 03:50:14;;;;;;;0.60;0.60;;;;;;;9.33;nan;97235.88;5054568;28;20243;-70
2022/11/04 03:52:41;;;;;;;1.30;0.60;;;;;;;9.29;nan;97236.56;5055224;28;20635;-70
2022/11/04 03:55:09;;;;;;;0.80;0.70;;;;;;;9.27;nan;97233.31;5054359;28;20664;-70
2022/11/04 03:57:50;;;;;;;1.53;0.50;;;;;;;9.27;nan;97233.31;5054299;28;20694;-70
2022/11/04 04:00:19;;;;;;;0.93;0.70;;;;;;;9.19;nan;97241.66;5054458;28;20224;-70
2022/11/04 04:03:02;;;;;;;0.70;0.70;;;;;;;9.23;nan;97248.13;5054474;28;20205;-70
2022/11/04 04:05:37;;;;;;;2.80;1.03;;;;;;;9.19;nan;97239.00;5053561;28;20654;-70
2022/11/04 04:08:20;;;;;;;1.37;0.80;;;;;;;9.19;nan;97239.78;5053209;28;20193;-70
2022/11/04 04:11:06;;;;;;;1.93;0.80;;;;;;;9.14;nan;97238.88;5054256;28;20217;-70
2022/11/04 04:13:50;;;;;;;0.60;0.60;;;;;;;9.16;nan;97240.28;5053093;28;20197;-70
2022/11/04 04:16:44;;;;;;;1.23;0.60;;;;;;;9.10;nan;97238.50;5054195;28;20197;-70
2022/11/04 04:19:17;;;;;;;1.47;0.80;;;;;;;9.12;nan;97235.63;5053878;28;20559;-70
2022/11/04 04:22:02;;;;;;;1.63;0.60;;;;;;;9.15;nan;97230.66;5053816;28;20232;-70
2022/11/04 04:27:33;;;;;;;1.03;0.60;;;;;;;9.10;nan;97227.91;5053829;28;20258;-70
2022/11/04 04:30:21;;;;;;;1.43;0.70;;;;;;;9.04;nan;97217.41;5053874;28;20219;-70
2022/11/04 04:32:50;;;;;;;1.07;0.80;;;;;;;9.08;nan;97226.53;5053951;28;20185;-70
2022/11/04 04:46:45;;;;;;;1.70;0.87;;;;;;;9.02;nan;97249.47;5053401;28;20207;-70
2022/11/04 04:49:11;;;;;;;0.80;0.80;;;;;;;9.01;nan;97245.19;5053571;28;20225;-70
2022/11/04 04:51:44;;;;;;;2.23;0.73;;;;;;;9.03;nan;97248.44;5052927;28;20575;-70
2022/11/04 04:54:11;;;;;;;0.50;0.50;;;;;;;9.00;nan;97242.78;5053252;28;20204;-70
2022/11/04 04:56:37;;;;;;;3.13;0.60;;;;;;;9.01;nan;97226.63;5053519;28;20205;-70
2022/11/04 04:59:04;;;;;;;2.77;0.60;;;;;;;9.04;nan;97207.63;5053216;28;20205;-70
2022/11/04 05:01:31;;;;;;;2.60;0.70;;;;;;;9.03;nan;97197.25;5052964;28;20631;-70
2022/11/04 05:03:58;;;;;;;0.70;0.70;;;;;;;8.99;nan;97210.16;5053224;28;20300;-70
2022/11/04 05:06:24;;;;;;;1.47;0.80;;;;;;;8.95;nan;97186.97;5052905;28;20668;-70
2022/11/04 05:08:50;;;;;;;1.40;0.60;;;;;;;8.89;nan;97167.50;5053727;28;20229;-70
2022/11/04 05:11:17;;;;;;;2.43;0.90;;;;;;;8.92;nan;97150.34;5053144;28;20231;-70
2022/11/04 05:13:43;;;;;;;2.93;0.70;;;;;;;8.85;nan;97152.28;5053377;28;20212;-70
2022/11/04 05:16:10;;;;;;;1.27;0.60;;;;;;;8.86;nan;97156.53;5052955;28;20694;-70
2022/11/04 05:18:37;;;;;;;2.43;0.70;;;;;;;8.87;nan;97160.84;5055954;28;20205;-69
2022/11/04 05:21:09;;;;;;;3.10;0.80;;;;;;;8.87;nan;97158.19;5057037;28;20266;-70
2022/11/04 05:23:35;;;;;;;0.77;0.60;;;;;;;8.87;nan;97158.97;5057129;28;20189;-70
2022/11/04 05:26:02;;;;;;;2.30;0.80;;;;;;;8.83;nan;97152.50;5057204;28;20205;-70
2022/11/04 05:28:28;;;;;;;1.33;0.80;;;;;;;8.83;nan;97175.56;5057129;28;20231;-70
2022/11/04 05:30:55;;;;;;;0.90;0.73;;;;;;;8.80;nan;97183.97;5057618;28;20236;-70
2022/11/04 05:33:21;;;;;;;0.90;0.70;;;;;;;8.78;nan;97180.75;5056719;28;20213;-70
2022/11/04 05:35:47;;;;;;;2.33;0.90;;;;;;;8.76;nan;97178.31;5057168;28;20295;-70
2022/11/04 05:38:14;;;;;;;1.63;0.73;;;;;;;8.76;nan;97183.63;5056631;28;20676;-70
2022/11/04 05:40:40;;;;;;;1.30;0.90;;;;;;;8.76;nan;97190.75;5056744;28;20221;-70
2022/11/04 05:43:07;;;;;;;2.23;0.80;;;;;;;8.72;nan;97193.06;5056829;28;20205;-70
2022/11/04 05:45:33;;;;;;;2.60;0.70;;;;;;;8.71;nan;97201.22;5056832;28;20212;-70
2022/11/04 05:48:05;;;;;;;3.73;0.80;;;;;;;8.70;nan;97208.41;5056899;28;20207;-71
2022/11/04 05:50:33;;;;;;;2.30;0.77;;;;;;;8.71;nan;97202.06;5056396;28;20255;-70
2022/11/04 05:53:00;;;;;;;1.00;0.63;;;;;;;8.69;nan;97204.09;5056401;28;20209;-70
2022/11/04 05:55:27;;;;;;;2.43;1.10;;;;;;;8.66;nan;97201.94;5056520;28;20215;-70
2022/11/04 05:57:53;;;;;;;4.43;0.93;;;;;;;8.57;nan;97195.34;5055754;28;20219;-70
2022/11/04 06:00:20;;;;;;;2.43;1.13;;;;;;;8.52;nan;97186.44;5056171;28;20630;-70
2022/11/04 06:02:46;;;;;;;1.33;0.90;;;;;;;8.45;nan;97165.38;5056464;28;20211;-70
2022/11/04 06:05:13;;;;;;;1.20;1.00;;;;;;;8.55;nan;97176.22;5056303;28;20209;-70
2022/11/04 06:07:39;;;;;;;4.03;1.00;;;;;;;8.61;nan;97175.31;5056479;28;20205;-70
2022/11/04 06:10:06;;;;;;;1.30;0.93;;;;;;;8.56;nan;97174.38;5056187;28;20258;-70
2022/11/04 06:12:32;;;;;;;2.97;0.80;;;;;;;8.65;nan;97170.34;5055814;28;20262;-70
2022/11/04 06:14:59;;;;;;;1.87;1.07;;;;;;;8.65;nan;97176.44;5055747;28;20209;-70
2022/11/04 06:17:25;;;;;;;1.27;0.80;;;;;;;8.73;nan;97185.94;5056135;28;20202;-70
2022/11/04 06:19:51;;;;;;;1.93;0.90;;;;;;;8.70;nan;97194.31;5055301;28;20209;-70
2022/11/04 06:22:19;;;;;;;2.10;0.90;;;;;;;8.70;nan;97199.63;5055347;28;20223;-70
2022/11/04 06:24:45;;;;;;;1.13;0.80;;;;;;;8.71;nan;97201.22;5055321;28;20664;-70
2022/11/04 06:27:13;;;;;;;3.73;1.00;;;;;;;8.76;nan;97204.81;5055901;28;20232;-70
2022/11/04 06:29:40;;;;;;;1.57;0.97;;;;;;;8.76;nan;97218.06;5055280;28;20229;-70
2022/11/04 06:32:11;;;;;;;1.93;0.80;;;;;;;8.63;nan;97239.47;5055455;28;20231;-70
2022/11/04 06:34:38;;;;;;;3.00;1.00;;;;;;;8.68;nan;97229.00;5055544;28;20194;-70
2022/11/04 06:37:05;;;;;;;2.33;1.07;;;;;;;8.70;nan;97234.91;5055225;28;20201;-70
2022/11/04 06:39:31;;;;;;;2.87;0.83;;;;;;;8.58;nan;97219.97;5055621;28;20201;-70
2022/11/04 06:41:57;;;;;;;2.10;1.00;;;;;;;8.55;nan;97233.69;5055303;28;20225;-71
2022/11/04 06:44:24;;;;;;;2.23;1.10;;;;;;;8.58;nan;97230.56;5055664;28;20236;-70
2022/11/04 06:46:50;;;;;;;2.07;1.37;;;;;;;8.57;nan;97231.63;5055650;28;20205;-70
2022/11/04 06:49:20;;;;;;;2.23;1.00;;;;;;;8.52;nan;97234.94;5055545;28;20612;-70
2022/11/04 06:51:47;;;;;;;1.50;1.40;;;;;;;8.49;nan;97239.88;5055557;28;20233;-70
2022/11/04 06:54:15;;;;;;;3.27;1.50;;;;;;;8.44;nan;97240.56;5056197;28;20207;-70
2022/11/04 06:56:42;;;;;;;2.23;1.30;;;;;;;8.55;nan;97244.28;5055249;28;20209;-70
2022/11/04 06:59:13;;;;;;;3.90;1.47;;;;;;;8.58;nan;97241.16;5055284;28;20207;-70
2022/11/04 07:01:40;;;;;;;2.47;1.30;;;;;;;8.71;nan;97233.03;5055401;28;20230;-70
2022/11/04 07:04:06;;;;;;;2.17;1.30;;;;;;;8.73;nan;97225.69;5055385;28;20239;-70
2022/11/04 07:06:33;;;;;;;4.30;1.80;;;;;;;8.74;nan;97228.06;5055628;28;20215;-70
2022/11/04 07:09:01;;;;;;;6.67;1.50;;;;;;;8.76;nan;97227.84;5054483;28;20304;-70
2022/11/04 07:11:29;;;;;;;2.73;1.50;;;;;;;8.81;nan;97234.09;5054953;28;20247;-70
2022/11/04 07:13:56;;;;;;;2.77;1.23;;;;;;;8.78;nan;97228.44;5055296;28;20216;-70
2022/11/04 07:16:22;;;;;;;5.20;1.40;;;;;;;8.80;nan;97229.84;5054946;28;20209;-70
2022/11/04 07:18:50;;;;;;;3.20;1.50;;;;;;;8.75;nan;97215.66;5054714;28;20205;-70
2022/11/04 07:21:17;;;;;;;4.63;1.03;;;;;;;8.86;nan;97205.06;5054565;28;20261;-70
2022/11/04 07:23:44;;;;;;;2.67;1.40;;;;;;;8.87;nan;97196.06;5054722;28;20200;-70
2022/11/04 07:26:11;;;;;;;5.37;1.20;;;;;;;8.98;nan;97197.94;5054723;28;20714;-70
2022/11/04 07:28:38;;;;;;;1.63;0.93;;;;;;;8.98;nan;97199.78;5054495;28;20664;-70
2022/11/04 07:31:07;;;;;;;2.23;1.30;;;;;;;9.03;nan;97205.19;5054176;28;20233;-70
2022/11/04 07:33:33;;;;;;;2.70;1.20;;;;;;;9.08;nan;97210.63;5054709;28;20207;-71
2022/11/04 07:36:05;;;;;;;1.30;1.20;;;;;;;9.13;nan;97208.06;5054716;28;20205;-70
2022/11/04 07:38:31;;;;;;;1.53;1.30;;;;;;;9.08;nan;97202.66;5054576;28;20208;-71
2022/11/04 07:40:58;;;;;;;2.30;1.23;;;;;;;9.16;nan;97202.31;5053294;28;20825;-71
2022/11/04 07:43:26;;;;;;;2.70;1.10;;;;;;;9.24;nan;97200.13;5054553;28;20205;-71
2022/11/04 07:46:04;;;;;;;2.53;1.00;;;;;;;9.28;nan;97208.44;5054506;28;20301;-70
2022/11/04 07:48:31;;;;;;;1.70;1.13;;;;;;;9.33;nan;97200.59;5054451;28;20193;-70
2022/11/04 07:50:59;;;;;;;2.73;1.10;;;;;;;9.32;nan;97207.75;5054056;28;20338;-71
2022/11/04 07:53:27;;;;;;;1.43;1.10;;;;;;;9.34;nan;97200.38;5054139;28;20231;-71
2022/11/04 07:55:54;;;;;;;1.93;1.10;;;;;;;9.40;nan;97198.63;5054269;28;20206;-71
2022/11/04 07:58:20;;;;;;;1.47;1.20;;;;;;;9.44;nan;97199.78;5054314;28;20216;-71
2022/11/04 08:00:47;;;;;;;3.10;1.20;;;;;;;9.45;nan;97193.41;5054217;28;20221;-71
2022/11/04 08:03:13;;;;;;;1.07;0.70;;;;;;;9.45;nan;97186.28;5053858;28;20211;-71
2022/11/04 08:05:40;;;;;;;1.67;1.13;;;;;;;9.56;nan;97190.75;5053923;28;20702;-70
2022/11/04 08:08:06;;;;;;;2.77;1.07;;;;;;;9.67;nan;97181.97;5053979;28;20211;-71
2022/11/04 08:10:33;;;;;;;4.20;1.00;;;;;;;9.72;nan;97181.25;5054040;28;20233;-70
2022/11/04 08:12:59;;;;;;;1.93;0.90;;;;;;;9.67;nan;97181.16;5053800;28;20209;-71
2022/11/04 08:15:27;;;;;;;3.03;1.27;;;;;;;9.74;nan;97187.16;5053831;28;20216;-71
2022/11/04 08:17:54;;;;;;;2.17;1.27;;;;;;;9.82;nan;97181.50;5054037;28;20306;-71
2022/11/04 08:20:20;;;;;;;2.30;1.23;;;;;;;9.92;nan;97184.34;5054238;28;20221;-71
2022/11/04 08:22:47;;;;;;;4.20;1.20;;;;;;;10.05;nan;97190.19;5053326;28;20217;-70
2022/11/04 08:25:13;;;;;;;1.13;1.00;;;;;;;10.06;nan;97180.41;5053413;28;20566;-71
2022/11/04 08:27:41;;;;;;;2.30;1.27;;;;;;;9.97;nan;97181.78;5053712;28;20297;-70
2022/11/04 08:30:08;;;;;;;3.97;1.27;;;;;;;9.93;nan;97191.25;5053566;28;20228;-71
2022/11/04 08:32:34;;;;;;;2.33;1.10;;;;;;;10.00;nan;97192.72;5053702;28;20201;-71
2022/11/04 08:35:01;;;;;;;1.90;1.00;;;;;;;10.24;nan;97199.63;5053588;28;20201;-71
2022/11/04 08:37:27;;;;;;;3.57;1.13;;;;;;;10.24;nan;97198.81;5053262;28;20672;-71
2022/11/04 08:39:53;;;;;;;2.97;1.30;;;;;;;10.21;nan;97199.28;5053170;28;20664;-71
2022/11/04 08:42:20;;;;;;;1.83;1.10;;;;;;;10.40;nan;97206.00;5053586;28;20216;-71
2022/11/04 08:44:51;;;;;;;3.10;1.10;;;;;;;10.40;nan;97203.34;5053536;28;20209;-70
2022/11/04 08:47:17;;;;;;;2.33;1.63;;;;;;;10.33;nan;97198.16;5053246;28;20200;-71
2022/11/04 08:49:44;;;;;;;5.10;2.43;;;;;;;10.35;nan;97206.72;5053436;28;20229;-71
2022/11/04 08:52:10;;;;;;;5.07;2.43;;;;;;;10.26;nan;97208.16;5053302;28;20228;-71
2022/11/04 08:54:37;;;;;;;2.17;1.60;;;;;;;10.32;nan;97209.06;5053221;28;20215;-71
2022/11/04 08:57:04;;;;;;;4.87;1.97;;;;;;;10.32;nan;97206.41;5053036;28;20688;-71
2022/11/04 08:59:30;;;;;;;4.43;2.03;;;;;;;10.35;nan;97198.75;5053429;28;20229;-71
2022/11/04 09:01:57;;;;;;;8.07;2.10;;;;;;;10.51;nan;97205.16;5053187;28;20225;-71
2022/11/04 09:04:23;;;;;;;5.27;1.90;;;;;;;10.53;nan;97211.84;5053389;28;20205;-70
2022/11/04 09:06:51;;;;;;;4.23;1.77;;;;;;;10.52;nan;97207.59;5053201;28;20209;-71
2022/11/04 09:09:19;;;;;;;6.30;1.50;;;;;;;10.67;nan;97210.50;5053375;28;20201;-71
2022/11/04 09:11:46;;;;;;;3.20;1.50;;;;;;;10.62;nan;97217.56;5052673;28;20243;-71
2022/11/04 09:14:13;;;;;;;5.97;1.73;;;;;;;10.67;nan;97217.66;5053022;28;20215;-71
2022/11/04 09:16:41;;;;;;;3.00;1.67;;;;;;;10.69;nan;97219.03;5052893;28;20666;-71
2022/11/04 09:19:07;;;;;;;3.87;1.23;;;;;;;10.76;nan;97219.69;5053820;28;20548;-71
2022/11/04 09:21:34;;;;;;;3.00;1.30;;;;;;;10.80;nan;97235.97;5052875;28;20233;-71
2022/11/04 09:24:01;;;;;;;1.93;1.10;;;;;;;10.72;nan;97245.13;5053037;28;20201;-71
2022/11/04 09:26:27;;;;;;;3.93;0.90;;;;;;;10.81;nan;97233.06;5053549;28;20255;-71
2022/11/04 09:28:56;;;;;;;3.33;0.80;;;;;;;10.85;nan;97236.03;5053109;28;20213;-71
2022/11/04 09:31:24;;;;;;;1.17;0.90;;;;;;;10.82;nan;97232.00;5052672;28;20700;-71
2022/11/04 09:33:50;;;;;;;1.60;1.00;;;;;;;10.90;nan;97231.63;5052874;28;20202;-71
2022/11/04 09:36:17;;;;;;;2.47;1.10;;;;;;;10.98;nan;97222.44;5052810;28;20217;-71
2022/11/04 09:38:44;;;;;;;2.23;0.90;;;;;;;11.12;nan;97233.56;5052803;28;20205;-71
2022/11/04 09:41:36;;;;;;;2.57;0.90;;;;;;;11.04;nan;97232.13;5052483;28;20709;-71
2022/11/04 09:44:36;;;;;;;4.60;1.07;;;;;;;11.07;nan;97232.44;5051618;28;20186;-71
2022/11/04 09:47:03;;;;;;;5.83;0.97;;;;;;;11.07;nan;97234.28;5052621;28;20191;-71
2022/11/04 09:49:36;;;;;;;3.33;0.90;;;;;;;11.19;nan;97241.13;5052676;28;20210;-71
2022/11/04 09:52:12;;;;;;;2.53;1.20;;;;;;;11.26;nan;97233.00;5052588;28;20719;-71
2022/11/04 09:54:44;;;;;;;3.77;0.90;;;;;;;11.25;nan;97219.97;5051716;28;20274;-71
2022/11/04 09:57:17;;;;;;;1.13;0.70;;;;;;;11.18;nan;97223.56;5052768;28;20194;-71
2022/11/04 09:59:44;;;;;;;2.73;1.10;;;;;;;11.31;nan;97227.78;5052648;28;20191;-71
2022/11/04 10:02:22;;;;;;;3.33;1.03;;;;;;;11.48;nan;97223.22;5052661;28;20222;-71
2022/11/04 10:05:07;;;;;;;1.10;0.90;;;;;;;11.63;nan;97209.34;5056010;28;20609;-71
2022/11/04 10:07:42;;;;;;;2.40;0.80;;;;;;;11.62;nan;97213.06;5056102;28;20193;-71
2022/11/04 10:10:19;;;;;;;2.47;1.10;;;;;;;11.57;nan;97219.09;5056162;28;20237;-71
2022/11/04 10:13:00;;;;;;;3.27;1.43;;;;;;;11.77;nan;97213.28;5055764;28;20206;-71
2022/11/04 10:15:53;;;;;;;3.77;1.00;;;;;;;11.89;nan;97213.97;5055848;28;20691;-71
2022/11/04 10:18:50;;;;;;;3.03;1.20;;;;;;;11.81;nan;97217.88;5056009;28;20229;-71
2022/11/04 10:21:21;;;;;;;3.23;1.00;;;;;;;11.92;nan;97213.44;5055882;28;20240;-71
2022/11/04 10:24:06;;;;;;;2.60;1.10;;;;;;;12.03;nan;97207.22;5055958;28;20273;-71
2022/11/04 10:26:44;;;;;;;1.73;0.90;;;;;;;11.89;nan;97201.44;5055990;28;20205;-71
2022/11/04 10:29:25;;;;;;;4.33;1.00;;;;;;;11.81;nan;97201.88;5055700;28;20201;-71
2022/11/04 10:31:54;;;;;;;4.33;1.10;;;;;;;11.80;nan;97202.13;5055463;28;20231;-71
2022/11/04 10:34:37;;;;;;;1.40;1.17;;;;;;;12.00;nan;97205.03;5055757;28;20230;-71
2022/11/04 10:37:04;;;;;;;4.43;1.27;;;;;;;11.95;nan;97203.13;5055554;28;20192;-71
2022/11/04 10:39:39;;;;;;;2.87;0.93;;;;;;;11.85;nan;97202.97;5055788;28;20652;-71
2022/11/04 10:42:05;;;;;;;2.00;0.90;;;;;;;11.85;nan;97204.84;5055497;28;20228;-71
2022/11/04 10:44:35;;;;;;;2.77;1.00;;;;;;;11.93;nan;97196.44;5055883;28;20218;-71
2022/11/04 10:47:40;;;;;;;1.83;0.90;;;;;;;12.34;nan;97191.31;5055570;28;20211;-71
2022/11/04 10:50:12;;;;;;;2.27;0.97;;;;;;;12.21;nan;97193.56;5054985;28;20215;-71
2022/11/04 10:52:40;;;;;;;1.57;0.80;;;;;;;12.29;nan;97188.59;5055274;28;20205;-71
2022/11/04 10:55:35;;;;;;;2.60;0.90;;;;;;;12.24;nan;97193.06;5055209;28;20208;-71
2022/11/04 10:58:02;;;;;;;3.93;1.40;;;;;;;12.44;nan;97193.28;5054990;28;20199;-71
2022/11/04 11:00:37;;;;;;;3.63;1.03;;;;;;;12.25;nan;97182.16;5053368;28;20224;-71
2022/11/04 11:03:21;;;;;;;2.10;0.97;;;;;;;12.24;nan;97185.88;5055342;28;20319;-71
2022/11/04 11:05:48;;;;;;;4.40;1.10;;;;;;;12.19;nan;97183.16;5055015;28;20593;-71
2022/11/04 11:08:31;;;;;;;5.33;1.20;;;;;;;12.17;nan;97190.56;5054911;28;20611;-71
2022/11/04 11:10:58;;;;;;;2.27;1.00;;;;;;;12.04;nan;97185.66;5054794;28;20232;-71
2022/11/04 11:13:34;;;;;;;1.80;1.00;;;;;;;11.99;nan;97193.59;5054660;28;20231;-71
2022/11/04 11:16:06;;;;;;;2.17;0.83;;;;;;;11.92;nan;97187.63;5053612;28;20196;-71
2022/11/04 11:18:33;;;;;;;2.73;1.10;;;;;;;12.03;nan;97183.25;5054930;28;20208;-71
2022/11/04 11:21:10;;;;;;;2.93;1.10;;;;;;;12.06;nan;97175.56;5054537;28;20312;-71
2022/11/04 11:23:47;;;;;;;2.70;1.20;;;;;;;11.94;nan;97174.88;5054737;28;20589;-71
2022/11/04 11:26:19;;;;;;;4.30;1.20;;;;;;;11.91;nan;97183.38;5054636;28;20549;-71
2022/11/04 11:29:11;;;;;;;3.70;1.10;;;;;;;11.82;nan;97176.88;5054695;28;20195;-71
2022/11/04 11:31:40;;;;;;;3.67;1.10;;;;;;;11.95;nan;97165.03;5053007;28;20241;-70
2022/11/04 11:34:16;;;;;;;2.90;1.20;;;;;;;12.10;nan;97171.34;5054240;28;20303;-70
2022/11/04 11:36:43;;;;;;;2.17;1.00;;;;;;;12.01;nan;97174.69;5054357;28;20200;-70
2022/11/04 11:39:13;;;;;;;1.40;0.77;;;;;;;12.08;nan;97152.13;5054133;28;20334;-70
2022/11/04 11:42:03;;;;;;;2.00;1.00;;;;;;;12.04;nan;97159.03;5054445;28;20224;-70
2022/11/04 11:44:31;;;;;;;3.27;1.00;;;;;;;12.18;nan;97157.56;5054369;28;20205;-70
2022/11/04 11:47:02;;;;;;;2.10;1.00;;;;;;;12.00;nan;97159.75;5054157;28;20208;-70
2022/11/04 11:49:37;;;;;;;3.60;0.90;;;;;;;12.03;nan;97152.06;5054540;28;20199;-70
2022/11/04 11:52:31;;;;;;;4.10;1.27;;;;;;;12.17;nan;97155.16;5054104;28;20231;-70
2022/11/04 11:55:18;;;;;;;4.27;1.10;;;;;;;12.21;nan;97158.94;5054744;28;20193;-70
2022/11/04 11:57:56;;;;;;;5.60;1.37;;;;;;;11.93;nan;97157.28;5053924;28;20197;-71
2022/11/04 12:00:31;;;;;;;3.27;1.10;;;;;;;12.27;nan;97150.75;5053944;28;20264;-70
2022/11/04 12:03:07;;;;;;;6.27;1.37;;;;;;;12.39;nan;97153.25;5054169;28;20188;-70
2022/11/04 12:05:48;;;;;;;3.03;0.93;;;;;;;12.31;nan;97151.03;5053989;28;20193;-70
2022/11/04 12:08:33;;;;;;;5.80;1.10;;;;;;;12.40;nan;97147.69;5053689;28;20199;-70
2022/11/04 12:11:12;;;;;;;2.93;1.10;;;;;;;12.45;nan;97149.56;5053974;28;20233;-71
2022/11/04 12:13:38;;;;;;;2.27;1.13;;;;;;;11.95;nan;97143.72;5053651;28;20689;-72
2022/11/04 12:16:10;;;;;;;3.20;1.20;;;;;;;12.56;nan;97146.75;5053652;28;20215;-72
2022/11/04 12:18:58;;;;;;;5.30;1.30;;;;;;;12.64;nan;97148.16;5053513;28;20197;-72
2022/11/04 12:21:32;;;;;;;2.17;1.00;;;;;;;12.39;nan;97148.72;5053873;28;20730;-73
2022/11/04 12:24:32;;;;;;;2.80;1.10;;;;;;;12.33;nan;97152.38;5053679;28;20280;-72
2022/11/04 12:27:13;;;;;;;4.47;1.30;;;;;;;12.29;nan;97153.16;5053354;28;20189;-72
2022/11/04 12:30:07;;;;;;;2.80;1.13;;;;;;;12.36;nan;97151.91;5053740;28;20190;-72
2022/11/04 12:32:36;;;;;;;4.77;1.40;;;;;;;12.32;nan;97161.44;5053794;28;20217;-72
2022/11/04 12:35:19;;;;;;;5.30;1.37;;;;;;;12.35;nan;97154.81;5053438;28;20213;-71
2022/11/04 12:37:54;;;;;;;4.87;1.20;;;;;;;12.26;nan;97153.66;5052508;28;20192;-71
2022/11/04 12:40:27;;;;;;;4.10;1.10;;;;;;;12.26;nan;97162.44;5053554;28;20249;-72
2022/11/04 12:43:12;;;;;;;3.47;1.17;;;;;;;12.20;nan;97163.44;5053656;28;20208;-71
2022/11/04 12:46:17;;;;;;;1.67;0.90;;;;;;;12.23;nan;97162.94;5053642;28;20192;-71